createdAt,value
2023-03-10T00:01:17.968Z,12.77
2023-03-10T00:03:46.303Z,12.63
2023-03-10T00:06:16.067Z,13.52
2023-03-10T00:08:44.368Z,12.95
2023-03-10T00:11:12.481Z,12.45
2023-03-10T00:13:41.787Z,13.38
2023-03-10T00:16:11.026Z,11.68
2023-03-10T00:18:38.826Z,11.90
2023-03-10T00:21:07.104Z,11.05
2023-03-10T00:23:37.388Z,12.18
2023-03-10T00:26:05.455Z,14.25
2023-03-10T00:28:33.175Z,11.80
2023-03-10T00:31:04.280Z,12.90
2023-03-10T00:33:33.119Z,11.20
2023-03-10T00:36:06.669Z,12.70
2023-03-10T00:38:35.403Z,13.05
2023-03-10T00:41:05.481Z,11.52
2023-03-10T00:43:33.828Z,14.15
2023-03-10T00:46:03.042Z,12.40
2023-03-10T00:48:31.082Z,14.07
2023-03-10T00:50:59.161Z,15.35
2023-03-10T00:53:27.226Z,13.63
2023-03-10T00:55:59.838Z,14.68
2023-03-10T00:58:27.674Z,15.73
2023-03-10T01:00:55.647Z,13.60
2023-03-10T01:03:26.162Z,13.55
2023-03-10T01:05:54.456Z,13.13
2023-03-10T01:08:22.548Z,13.35
2023-03-10T01:10:51.028Z,17.23
2023-03-10T01:13:20.335Z,20.00
2023-03-10T01:15:48.886Z,15.32
2023-03-10T01:18:18.058Z,16.67
2023-03-10T01:20:47.601Z,13.27
2023-03-10T01:23:17.139Z,12.88
2023-03-10T01:25:45.591Z,13.85
2023-03-10T01:28:13.603Z,16.50
2023-03-10T01:30:41.832Z,14.25
2023-03-10T01:33:10.550Z,13.50
2023-03-10T01:35:39.080Z,14.57
2023-03-10T01:38:09.216Z,13.82
2023-03-10T01:40:37.845Z,15.23
2023-03-10T01:43:39.777Z,15.45
2023-03-10T01:46:38.455Z,13.00
2023-03-10T01:49:12.934Z,13.77
2023-03-10T01:51:44.605Z,14.35
2023-03-10T01:54:17.764Z,15.43
2023-03-10T01:56:47.173Z,15.02
2023-03-10T01:59:15.645Z,14.70
2023-03-10T02:01:43.873Z,16.40
2023-03-10T02:04:17.070Z,17.98
2023-03-10T02:06:48.635Z,18.98
2023-03-10T02:09:19.501Z,15.70
2023-03-10T02:11:49.051Z,16.02
2023-03-10T02:14:17.408Z,13.77
2023-03-10T02:16:45.379Z,17.55
2023-03-10T02:19:22.753Z,16.25
2023-03-10T02:21:58.266Z,18.35
2023-03-10T02:24:34.271Z,15.18
2023-03-10T02:27:05.443Z,12.63
2023-03-10T02:29:52.575Z,14.52
2023-03-10T02:32:26.831Z,14.57
2023-03-10T02:34:54.698Z,16.83
2023-03-10T02:37:24.116Z,14.45
2023-03-10T02:39:51.900Z,12.73
2023-03-10T02:42:20.580Z,14.32
2023-03-10T02:44:50.062Z,13.77
2023-03-10T02:47:17.890Z,14.68
2023-03-10T02:49:45.842Z,17.02
2023-03-10T02:52:22.660Z,15.95
2023-03-10T02:54:50.415Z,13.88
2023-03-10T02:57:18.177Z,15.55
2023-03-10T02:59:45.929Z,15.05
2023-03-10T03:02:14.995Z,19.67
2023-03-10T03:04:42.765Z,16.15
2023-03-10T03:07:10.484Z,13.38
2023-03-10T03:09:38.476Z,18.13
2023-03-10T03:12:06.684Z,18.35
2023-03-10T03:14:34.422Z,15.45
2023-03-10T03:17:02.234Z,15.85
2023-03-10T03:19:31.399Z,17.48
2023-03-10T03:21:59.171Z,13.65
2023-03-10T03:24:27.067Z,20.55
2023-03-10T03:26:54.937Z,16.15
2023-03-10T03:29:22.694Z,15.05
2023-03-10T03:31:50.525Z,15.48
2023-03-10T03:34:20.696Z,14.05
2023-03-10T03:36:49.850Z,19.02
2023-03-10T03:39:17.685Z,16.85
2023-03-10T03:41:45.677Z,17.40
2023-03-10T03:44:13.406Z,15.02
2023-03-10T03:46:41.238Z,15.07
2023-03-10T03:49:10.556Z,15.57
2023-03-10T03:51:38.651Z,17.25
2023-03-10T03:54:07.894Z,17.75
2023-03-10T03:56:35.701Z,13.93
2023-03-10T03:59:03.515Z,14.52
2023-03-10T04:01:31.245Z,14.60
2023-03-10T04:03:59.052Z,21.35
2023-03-10T04:06:26.827Z,15.93
2023-03-10T04:08:54.603Z,17.77
2023-03-10T04:11:23.738Z,17.80
2023-03-10T04:13:51.480Z,15.05
2023-03-10T04:16:19.282Z,16.48
2023-03-10T04:18:47.033Z,16.27
2023-03-10T04:21:14.745Z,16.77
2023-03-10T04:23:43.792Z,16.13
2023-03-10T04:26:11.903Z,16.73
2023-03-10T04:28:40.999Z,18.05
2023-03-10T04:31:15.458Z,16.02
2023-03-10T04:33:43.324Z,15.43
2023-03-10T04:36:11.230Z,17.27
2023-03-10T04:38:40.061Z,16.50
2023-03-10T04:41:09.501Z,17.17
2023-03-10T04:43:38.385Z,17.38
2023-03-10T04:46:08.408Z,17.35
2023-03-10T04:48:36.777Z,19.92
2023-03-10T04:51:07.433Z,16.52
2023-03-10T04:53:35.586Z,16.08
2023-03-10T04:56:05.273Z,20.65
2023-03-10T04:58:34.098Z,13.98
2023-03-10T05:01:03.716Z,13.50
2023-03-10T05:03:32.993Z,16.50
2023-03-10T05:06:00.723Z,14.95
2023-03-10T05:08:28.580Z,17.23
2023-03-10T05:10:56.631Z,12.98
2023-03-10T05:13:24.423Z,14.80
2023-03-10T05:15:52.334Z,13.57
2023-03-10T05:18:20.148Z,13.55
2023-03-10T05:20:54.285Z,17.95
2023-03-10T05:23:22.093Z,13.55
2023-03-10T05:25:49.861Z,14.35
2023-03-10T05:28:17.791Z,14.10
2023-03-10T05:30:45.782Z,12.43
2023-03-10T05:33:13.525Z,11.75
2023-03-10T05:35:41.390Z,12.30
2023-03-10T05:38:10.495Z,15.45
2023-03-10T05:40:38.233Z,17.33
2023-03-10T05:43:05.984Z,12.88
2023-03-10T05:45:33.739Z,16.88
2023-03-10T05:48:01.716Z,14.02
2023-03-10T05:50:30.410Z,13.18
2023-03-10T05:52:58.086Z,14.63
2023-03-10T05:55:29.059Z,17.15
2023-03-10T05:57:56.866Z,15.77
2023-03-10T06:00:25.251Z,14.60
2023-03-10T06:02:53.314Z,12.60
2023-03-10T06:05:21.188Z,15.18
2023-03-10T06:07:48.996Z,12.18
2023-03-10T06:10:16.775Z,14.32
2023-03-10T06:12:45.899Z,12.35
2023-03-10T06:15:13.654Z,16.23
2023-03-10T06:17:41.401Z,12.80
2023-03-10T06:20:09.911Z,12.30
2023-03-10T06:22:37.808Z,13.43
2023-03-10T06:25:06.617Z,14.55
2023-03-10T06:35:33.156Z,14.68
2023-03-10T06:38:01.090Z,14.50
2023-03-10T06:40:28.887Z,11.23
2023-03-10T06:42:56.635Z,10.88
2023-03-10T06:45:24.341Z,10.75
2023-03-10T06:47:52.150Z,10.23
2023-03-10T06:50:20.124Z,10.80
2023-03-10T06:52:49.245Z,14.02
2023-03-10T06:55:17.534Z,9.63
2023-03-10T06:57:45.321Z,14.90
2023-03-10T07:00:18.218Z,10.43
2023-03-10T07:02:48.392Z,12.57
2023-03-10T07:05:16.198Z,13.60
2023-03-10T07:07:44.059Z,13.25
2023-03-10T07:10:13.954Z,10.50
2023-03-10T07:12:41.731Z,11.43
2023-03-10T07:15:10.453Z,9.40
2023-03-10T07:17:38.316Z,11.35
2023-03-10T07:20:07.237Z,12.07
2023-03-10T07:22:35.007Z,12.27
2023-03-10T07:25:02.929Z,9.23
2023-03-10T07:27:32.104Z,9.73
2023-03-10T07:29:59.902Z,10.55
2023-03-10T07:32:27.690Z,11.85
2023-03-10T07:34:55.491Z,12.07
2023-03-10T07:37:23.327Z,10.70
2023-03-10T07:39:51.339Z,10.73
2023-03-10T07:42:19.073Z,11.48
2023-03-10T07:44:48.257Z,10.45
2023-03-10T07:47:16.135Z,12.20
2023-03-10T07:49:46.866Z,11.07
2023-03-10T07:52:15.412Z,12.38
2023-03-10T07:54:44.366Z,10.45
2023-03-10T07:57:12.650Z,11.07
2023-03-10T07:59:40.826Z,10.73
2023-03-10T08:02:13.319Z,10.45
2023-03-10T08:04:41.536Z,12.02
2023-03-10T08:07:10.107Z,10.38
2023-03-10T08:09:37.961Z,10.38
2023-03-10T08:12:06.368Z,11.05
2023-03-10T08:14:34.172Z,10.57
2023-03-10T08:17:01.897Z,12.43
2023-03-10T08:19:31.040Z,13.38
2023-03-10T08:21:59.031Z,10.95
2023-03-10T08:24:27.161Z,12.20
2023-03-10T08:26:55.131Z,10.73
2023-03-10T08:29:22.936Z,10.73
2023-03-10T08:31:50.716Z,10.52
2023-03-10T08:34:20.249Z,9.10
2023-03-10T08:36:49.348Z,9.13
2023-03-10T08:39:17.134Z,8.15
2023-03-10T08:41:49.185Z,8.20
2023-03-10T08:44:18.806Z,12.60
2023-03-10T08:46:48.923Z,10.00
2023-03-10T08:49:18.409Z,8.48
2023-03-10T08:51:46.294Z,6.82
2023-03-10T08:54:18.404Z,6.18
2023-03-10T08:56:46.152Z,6.00
2023-03-10T08:59:13.946Z,7.78
2023-03-10T09:01:42.529Z,6.90
2023-03-10T09:04:11.423Z,5.70
2023-03-10T09:06:39.687Z,9.02
2023-03-10T09:09:10.005Z,7.40
2023-03-10T09:11:41.024Z,7.43
2023-03-10T09:14:11.069Z,7.35
2023-03-10T09:16:40.273Z,6.40
2023-03-10T09:19:08.242Z,7.00
2023-03-10T09:21:36.411Z,7.15
2023-03-10T09:24:04.711Z,5.68
2023-03-10T09:26:32.494Z,6.53
2023-03-10T09:29:02.046Z,4.47
2023-03-10T09:31:33.092Z,4.78
2023-03-10T09:34:01.374Z,4.22
2023-03-10T09:36:29.832Z,5.00
2023-03-10T09:38:58.647Z,6.22
2023-03-10T09:41:43.141Z,4.32
2023-03-10T09:44:26.205Z,5.30
2023-03-10T09:47:07.327Z,4.20
2023-03-10T09:49:38.384Z,4.20
2023-03-10T09:52:19.098Z,3.35
2023-03-10T09:54:56.460Z,5.25
2023-03-10T09:57:24.591Z,4.28
2023-03-10T09:59:59.153Z,3.38
2023-03-10T10:02:31.956Z,3.40
2023-03-10T10:05:08.005Z,3.97
2023-03-10T10:07:43.553Z,4.05
2023-03-10T10:10:17.854Z,4.63
2023-03-10T10:12:47.365Z,3.33
2023-03-10T10:15:18.863Z,3.00
2023-03-10T10:18:05.476Z,4.72
2023-03-10T10:20:43.316Z,4.30
2023-03-10T10:23:22.361Z,3.08
2023-03-10T10:25:50.593Z,4.75
2023-03-10T10:28:26.249Z,5.55
2023-03-10T10:31:11.772Z,3.58
2023-03-10T10:33:54.434Z,4.32
2023-03-10T10:36:24.892Z,2.70
2023-03-10T10:38:54.288Z,3.05
2023-03-10T10:41:25.228Z,2.75
2023-03-10T10:43:53.414Z,2.88
2023-03-10T10:46:28.955Z,2.50
2023-03-10T10:49:07.559Z,5.00
2023-03-10T10:51:37.899Z,2.80
2023-03-10T10:54:23.220Z,2.85
2023-03-10T10:56:55.013Z,2.38
2023-03-10T10:59:24.378Z,2.08
2023-03-10T11:01:56.169Z,2.40
2023-03-10T11:04:25.664Z,3.58
2023-03-10T11:06:54.573Z,1.85
2023-03-10T11:09:24.078Z,3.30
2023-03-10T11:12:03.153Z,2.20
2023-03-10T11:14:42.769Z,1.77
2023-03-10T11:17:16.428Z,2.03
2023-03-10T11:19:59.469Z,2.08
2023-03-10T11:22:38.673Z,1.60
2023-03-10T11:25:16.812Z,1.92
2023-03-10T11:27:53.756Z,2.35
2023-03-10T11:30:27.153Z,1.52
2023-03-10T11:33:06.590Z,1.48
2023-03-10T11:35:43.814Z,1.90
2023-03-10T11:38:34.193Z,1.80
2023-03-10T11:41:07.679Z,2.10
2023-03-10T11:43:49.841Z,2.08
2023-03-10T11:46:22.624Z,1.85
2023-03-10T11:49:03.162Z,3.00
2023-03-10T11:51:40.057Z,3.25
2023-03-10T11:54:15.616Z,5.32
2023-03-10T11:56:44.240Z,4.78
2023-03-10T11:59:16.997Z,3.08
2023-03-10T12:01:49.333Z,4.03
2023-03-10T12:04:22.945Z,2.63
2023-03-10T12:06:54.752Z,3.30
2023-03-10T12:09:40.538Z,3.67
2023-03-10T12:12:13.623Z,3.65
2023-03-10T12:14:43.424Z,3.30
2023-03-10T12:17:14.260Z,3.60
2023-03-10T12:20:12.068Z,4.07
2023-03-10T12:22:41.094Z,3.60
2023-03-10T12:25:42.336Z,3.72
2023-03-10T12:28:24.686Z,3.42
2023-03-10T12:30:57.429Z,3.13
2023-03-10T12:33:42.871Z,3.63
2023-03-10T12:36:15.186Z,4.20
2023-03-10T12:38:46.158Z,4.18
2023-03-10T12:41:15.575Z,5.25
2023-03-10T12:44:08.365Z,3.00
2023-03-10T12:46:45.540Z,4.13
2023-03-10T12:49:33.354Z,4.82
2023-03-10T12:52:17.036Z,3.85
2023-03-10T12:55:03.453Z,4.75
2023-03-10T12:57:38.026Z,4.00
2023-03-10T13:00:15.425Z,5.30
2023-03-10T13:02:51.647Z,4.90
2023-03-10T13:05:23.220Z,4.38
2023-03-10T13:07:55.923Z,4.65
2023-03-10T13:10:25.844Z,4.15
2023-03-10T13:12:57.880Z,4.93
2023-03-10T13:15:30.217Z,5.10
2023-03-10T13:18:11.284Z,4.43
2023-03-10T13:20:39.631Z,4.40
2023-03-10T13:23:21.897Z,4.95
2023-03-10T13:25:54.194Z,4.72
2023-03-10T13:28:22.267Z,6.30
2023-03-10T13:30:50.118Z,7.00
2023-03-10T13:33:24.679Z,9.20
2023-03-10T13:35:53.616Z,7.28
2023-03-10T13:38:24.703Z,5.82
2023-03-10T13:41:00.810Z,7.22
2023-03-10T13:43:39.645Z,7.93
2023-03-10T13:46:15.519Z,9.30
2023-03-10T13:48:44.516Z,8.00
2023-03-10T13:51:21.640Z,10.05
2023-03-10T13:53:53.382Z,9.10
2023-03-10T13:56:24.579Z,8.98
2023-03-10T13:58:55.194Z,8.98
2023-03-10T14:01:26.191Z,9.15
2023-03-10T14:03:57.205Z,10.40
2023-03-10T14:06:25.823Z,10.68
2023-03-10T14:08:55.076Z,14.32
2023-03-10T14:11:33.580Z,12.43
2023-03-10T14:14:02.017Z,13.60
2023-03-10T14:16:47.411Z,11.05
2023-03-10T14:19:15.407Z,8.65
2023-03-10T14:21:58.520Z,8.88
2023-03-10T14:24:30.338Z,9.63
2023-03-10T14:27:01.268Z,8.88
2023-03-10T14:29:30.774Z,10.55
2023-03-10T14:31:58.511Z,11.88
2023-03-10T14:34:26.257Z,12.05
2023-03-10T14:36:54.048Z,9.82
2023-03-10T14:39:21.860Z,18.23
2023-03-10T14:41:52.309Z,16.38
2023-03-10T14:44:20.168Z,11.35
2023-03-10T14:46:53.086Z,15.75
2023-03-10T14:49:24.649Z,9.95
2023-03-10T14:51:52.692Z,11.05
2023-03-10T14:54:21.818Z,12.48
2023-03-10T14:56:58.855Z,12.35
2023-03-10T14:59:28.785Z,11.18
2023-03-10T15:01:57.740Z,14.07
2023-03-10T15:04:25.545Z,13.60
2023-03-10T15:06:53.528Z,13.50
2023-03-10T15:09:22.771Z,9.50
2023-03-10T15:11:52.060Z,9.70
2023-03-10T15:14:20.710Z,10.80
2023-03-10T15:16:48.529Z,9.52
2023-03-10T15:19:21.218Z,12.95
2023-03-10T15:21:49.120Z,21.00
2023-03-10T15:24:16.919Z,12.23
2023-03-10T15:26:44.903Z,13.88
2023-03-10T15:29:16.363Z,11.45
2023-03-10T15:31:44.406Z,12.48
2023-03-10T15:34:12.302Z,18.70
2023-03-10T15:36:40.379Z,10.90
2023-03-10T15:39:09.849Z,9.82
2023-03-10T15:41:40.330Z,13.82
2023-03-10T15:44:08.507Z,7.43
2023-03-10T15:46:37.721Z,10.20
2023-03-10T15:49:05.626Z,6.97
2023-03-10T15:51:33.474Z,8.27
2023-03-10T15:54:01.552Z,7.03
2023-03-10T15:56:30.252Z,5.50
2023-03-10T15:58:58.300Z,9.15
2023-03-10T16:01:26.127Z,6.85
2023-03-10T16:03:55.251Z,7.88
2023-03-10T16:06:25.968Z,7.65
2023-03-10T16:08:53.751Z,3.97
2023-03-10T16:11:23.228Z,2.40
2023-03-10T16:13:51.004Z,2.55
2023-03-10T16:16:23.413Z,3.75
2023-03-10T16:18:52.325Z,7.93
2023-03-10T16:21:21.607Z,6.20
2023-03-10T16:23:49.817Z,2.67
2023-03-10T16:26:20.104Z,1.88
2023-03-10T16:28:50.543Z,2.47
2023-03-10T16:31:20.089Z,5.13
2023-03-10T16:33:49.559Z,4.18
2023-03-10T16:36:19.144Z,2.97
2023-03-10T16:38:49.665Z,6.47
2023-03-10T16:41:18.209Z,7.68
2023-03-10T16:43:46.439Z,5.53
2023-03-10T16:46:17.342Z,5.20
2023-03-10T16:48:47.177Z,3.42
2023-03-10T16:51:24.677Z,6.38
2023-03-10T16:53:55.126Z,2.72
2023-03-10T16:56:25.132Z,2.70
2023-03-10T16:58:53.543Z,6.80
2023-03-10T17:01:24.001Z,9.18
2023-03-10T17:03:51.957Z,3.50
2023-03-10T17:06:23.104Z,4.93
2023-03-10T17:08:53.673Z,5.68
2023-03-10T17:11:24.743Z,9.07
2023-03-10T17:13:54.743Z,8.35
2023-03-10T17:16:28.107Z,4.78
2023-03-10T17:18:57.128Z,5.40
2023-03-10T17:21:27.358Z,6.65
2023-03-10T17:23:56.127Z,5.70
2023-03-10T17:26:25.968Z,11.27
2023-03-10T17:28:53.823Z,6.43
2023-03-10T17:31:29.537Z,4.03
2023-03-10T17:34:00.018Z,7.07
2023-03-10T17:36:28.604Z,6.93
2023-03-10T17:38:57.719Z,6.82
2023-03-10T17:41:27.951Z,5.50
2023-03-10T17:43:56.201Z,4.80
2023-03-10T17:46:25.852Z,10.77
2023-03-10T17:48:53.974Z,12.77
2023-03-10T17:51:23.522Z,13.00
2023-03-10T17:53:53.914Z,10.55
2023-03-10T17:56:22.693Z,10.65
2023-03-10T17:58:53.992Z,13.90
2023-03-10T18:01:25.948Z,9.35
2023-03-10T18:03:53.740Z,15.23
2023-03-10T18:06:24.629Z,6.55
2023-03-10T18:08:56.092Z,8.02
2023-03-10T18:11:24.699Z,12.00
2023-03-10T18:13:53.974Z,6.63
2023-03-10T18:16:24.061Z,9.18
2023-03-10T18:18:52.392Z,14.00
2023-03-10T18:21:21.131Z,12.75
2023-03-10T18:23:49.763Z,9.95
2023-03-10T18:26:19.937Z,12.23
2023-03-10T18:28:48.120Z,13.10
2023-03-10T18:31:21.309Z,11.05
2023-03-10T18:33:49.450Z,10.38
2023-03-10T18:36:18.145Z,10.07
2023-03-10T18:38:47.088Z,6.55
2023-03-10T18:41:15.202Z,8.45
2023-03-10T18:43:43.511Z,11.82
2023-03-10T18:46:11.336Z,10.57
2023-03-10T18:48:40.540Z,12.40
2023-03-10T18:51:08.543Z,13.43
2023-03-10T18:53:36.533Z,9.98
2023-03-10T18:56:04.533Z,13.95
2023-03-10T18:58:33.094Z,13.88
2023-03-10T19:01:00.966Z,13.75
2023-03-10T19:03:33.947Z,14.57
2023-03-10T19:06:03.144Z,16.75
2023-03-10T19:08:30.936Z,13.57
2023-03-10T19:11:01.134Z,8.55
2023-03-10T19:13:30.235Z,12.55
2023-03-10T19:15:58.069Z,16.88
2023-03-10T19:18:26.376Z,16.67
2023-03-10T19:21:00.186Z,35.78
2023-03-10T19:23:29.966Z,11.82
2023-03-10T19:25:57.795Z,11.73
2023-03-10T19:28:25.583Z,15.82
2023-03-10T19:30:53.374Z,8.55
2023-03-10T19:33:21.121Z,14.52
2023-03-10T19:35:49.846Z,12.13
2023-03-10T19:38:17.664Z,15.10
2023-03-10T19:40:48.327Z,12.32
2023-03-10T19:43:16.259Z,12.63
2023-03-10T19:45:44.067Z,10.70
2023-03-10T19:48:11.795Z,16.73
2023-03-10T19:50:39.658Z,12.93
2023-03-10T19:53:07.410Z,13.18
2023-03-10T19:55:36.495Z,10.40
2023-03-10T19:58:05.618Z,7.93
2023-03-10T20:00:36.087Z,10.50
2023-03-10T20:03:04.315Z,11.63
2023-03-10T20:05:33.039Z,15.07
2023-03-10T20:08:02.097Z,12.85
2023-03-10T20:10:29.905Z,12.05
2023-03-10T20:13:07.402Z,6.60
2023-03-10T20:15:37.051Z,12.23
2023-03-10T20:18:05.330Z,10.75
2023-03-10T20:20:33.838Z,10.00
2023-03-10T20:23:01.626Z,9.75
2023-03-10T20:25:29.401Z,10.18
2023-03-10T20:27:57.226Z,16.05
2023-03-10T20:30:27.951Z,18.83
2023-03-10T20:32:58.029Z,9.18
2023-03-10T20:35:29.204Z,11.07
2023-03-10T20:37:57.352Z,12.38
2023-03-10T20:40:32.676Z,8.80
2023-03-10T20:43:00.571Z,15.85
2023-03-10T20:45:29.069Z,10.85
2023-03-10T20:47:58.936Z,12.68
2023-03-10T20:50:26.778Z,8.63
2023-03-10T20:52:54.861Z,8.60
2023-03-10T20:55:24.338Z,25.25
2023-03-10T20:57:54.586Z,14.95
2023-03-10T21:00:24.626Z,10.40
2023-03-10T21:02:53.760Z,11.95
2023-03-10T21:05:23.429Z,11.98
2023-03-10T21:07:51.615Z,21.80
2023-03-10T21:10:19.528Z,11.20
2023-03-10T21:12:47.366Z,8.00
2023-03-10T21:15:17.057Z,9.93
2023-03-10T21:17:45.092Z,10.10
2023-03-10T21:20:17.225Z,6.88
2023-03-10T21:22:46.742Z,13.18
2023-03-10T21:25:17.616Z,6.75
2023-03-10T21:27:48.261Z,12.50
2023-03-10T21:30:17.177Z,8.77
2023-03-10T21:32:45.712Z,18.70
2023-03-10T21:35:14.328Z,9.60
2023-03-10T21:37:44.169Z,13.20
2023-03-10T21:40:17.949Z,5.50
2023-03-10T21:45:15.251Z,11.00
2023-03-10T21:47:43.033Z,8.73
2023-03-10T21:50:13.083Z,12.20
2023-03-10T21:52:41.468Z,14.07
2023-03-10T21:55:14.753Z,11.43
2023-03-10T21:57:42.484Z,9.95
2023-03-10T22:00:12.649Z,15.40
2023-03-10T22:02:40.867Z,12.77
2023-03-10T22:05:11.357Z,16.27
2023-03-10T22:07:39.747Z,9.27
2023-03-10T22:10:08.361Z,12.13
2023-03-10T22:12:37.768Z,8.95
2023-03-10T22:15:06.538Z,10.32
2023-03-10T22:17:34.671Z,14.20
2023-03-10T22:20:02.467Z,5.68
2023-03-10T22:22:30.248Z,24.13
2023-03-10T22:24:58.024Z,7.65
2023-03-10T22:27:25.747Z,5.97
2023-03-10T22:29:55.352Z,12.68
2023-03-10T22:32:23.168Z,11.57
2023-03-10T22:34:50.961Z,8.30
2023-03-10T22:37:18.775Z,13.38
2023-03-10T22:39:47.401Z,6.90
2023-03-10T22:42:15.494Z,12.05
2023-03-10T22:44:43.278Z,5.30
2023-03-10T22:47:12.451Z,4.97
2023-03-10T22:49:44.225Z,9.00
2023-03-10T22:52:12.125Z,13.23
2023-03-10T22:55:17.259Z,5.03
2023-03-10T22:57:45.328Z,9.38
2023-03-10T23:00:18.699Z,5.30
2023-03-10T23:02:48.252Z,10.27
2023-03-10T23:05:17.036Z,7.97
2023-03-10T23:07:45.563Z,9.25
2023-03-10T23:10:17.639Z,4.72
2023-03-10T23:12:45.863Z,7.95
2023-03-10T23:15:24.881Z,4.60
2023-03-10T23:17:55.624Z,7.35
2023-03-10T23:20:26.856Z,6.50
2023-03-10T23:22:56.581Z,8.90
2023-03-10T23:25:26.632Z,5.47
2023-03-10T23:27:54.879Z,5.13
2023-03-10T23:30:22.870Z,8.70
2023-03-10T23:32:51.863Z,9.57
2023-03-10T23:35:23.101Z,6.85
2023-03-10T23:37:50.938Z,5.80
2023-03-10T23:40:20.583Z,8.68
2023-03-10T23:42:48.754Z,8.52
2023-03-10T23:45:19.446Z,8.48
2023-03-10T23:47:48.202Z,6.00
2023-03-10T23:50:20.323Z,8.23
2023-03-10T23:52:50.191Z,6.43
2023-03-10T23:55:20.840Z,14.63
2023-03-10T23:57:49.076Z,5.20
